sensor_id;sensor_type;location;lat;lon;timestamp;pressure;altitude;pressure_sealevel;temperature;humidity
60019;BME280;45870;42.528;26.740;2024-02-26T00:01:24;99451.31;;;12.36;57.37
60019;BME280;45870;42.528;26.740;2024-02-26T00:03:50;99440.84;;;12.67;56.39
60019;BME280;45870;42.528;26.740;2024-02-26T00:06:15;99439.81;;;12.94;55.62
60019;BME280;45870;42.528;26.740;2024-02-26T00:08:41;99439.72;;;14.22;52.45
60019;BME280;45870;42.528;26.740;2024-02-26T00:11:06;99442.22;;;13.86;53.29
60019;BME280;45870;42.528;26.740;2024-02-26T00:13:32;99442.53;;;15.39;49.47
60019;BME280;45870;42.528;26.740;2024-02-26T00:15:57;99438.41;;;16.18;46.11
60019;BME280;45870;42.528;26.740;2024-02-26T00:18:22;99438.34;;;16.97;43.55
60019;BME280;45870;42.528;26.740;2024-02-26T00:20:48;99436.94;;;17.05;41.72
60019;BME280;45870;42.528;26.740;2024-02-26T00:23:16;99437.66;;;15.77;46.26
60019;BME280;45870;42.528;26.740;2024-02-26T00:25:42;99436.03;;;15.40;46.03
60019;BME280;45870;42.528;26.740;2024-02-26T00:28:08;99438.16;;;15.99;45.23
60019;BME280;45870;42.528;26.740;2024-02-26T00:30:34;99440.88;;;14.98;45.90
60019;BME280;45870;42.528;26.740;2024-02-26T00:32:59;99437.63;;;15.31;45.26
60019;BME280;45870;42.528;26.740;2024-02-26T00:35:25;99434.41;;;15.75;44.33
60019;BME280;45870;42.528;26.740;2024-02-26T00:37:50;99429.13;;;14.77;47.56
60019;BME280;45870;42.528;26.740;2024-02-26T00:40:15;99433.31;;;13.91;50.45
60019;BME280;45870;42.528;26.740;2024-02-26T00:42:41;99426.47;;;13.78;51.35
60019;BME280;45870;42.528;26.740;2024-02-26T00:45:11;99421.34;;;13.87;51.83
60019;BME280;45870;42.528;26.740;2024-02-26T00:47:36;99409.66;;;14.33;50.77
60019;BME280;45870;42.528;26.740;2024-02-26T00:50:01;99224.94;;;12.89;50.60
60019;BME280;45870;42.528;26.740;2024-02-26T00:52:27;99417.38;;;13.58;51.08
60019;BME280;45870;42.528;26.740;2024-02-26T00:54:52;99404.94;;;14.76;48.67
60019;BME280;45870;42.528;26.740;2024-02-26T00:57:18;99404.44;;;15.34;46.60
60019;BME280;45870;42.528;26.740;2024-02-26T00:59:43;99395.25;;;15.51;45.89
60019;BME280;45870;42.528;26.740;2024-02-26T01:02:09;99400.34;;;14.91;46.71
60019;BME280;45870;42.528;26.740;2024-02-26T01:04:34;99399.53;;;14.91;47.77
60019;BME280;45870;42.528;26.740;2024-02-26T01:06:59;99409.34;;;15.42;46.32
60019;BME280;45870;42.528;26.740;2024-02-26T01:09:25;99396.47;;;14.62;48.22
60019;BME280;45870;42.528;26.740;2024-02-26T01:11:50;99373.91;;;13.94;49.83
60019;BME280;45870;42.528;26.740;2024-02-26T01:14:16;99398.59;;;14.50;48.43
60019;BME280;45870;42.528;26.740;2024-02-26T01:16:41;99394.91;;;14.96;47.43
60019;BME280;45870;42.528;26.740;2024-02-26T01:19:07;99396.03;;;15.06;47.24
60019;BME280;45870;42.528;26.740;2024-02-26T01:21:32;99407.34;;;13.63;50.17
60019;BME280;45870;42.528;26.740;2024-02-26T01:23:57;99400.53;;;13.56;50.30
60019;BME280;45870;42.528;26.740;2024-02-26T01:26:23;99407.16;;;12.79;52.17
60019;BME280;45870;42.528;26.740;2024-02-26T01:28:48;99397.44;;;13.84;50.68
60019;BME280;45870;42.528;26.740;2024-02-26T01:31:14;99393.31;;;15.56;45.15
60019;BME280;45870;42.528;26.740;2024-02-26T01:33:39;99390.03;;;15.74;44.36
60019;BME280;45870;42.528;26.740;2024-02-26T01:36:05;99388.72;;;15.52;44.00
60019;BME280;45870;42.528;26.740;2024-02-26T01:38:30;99385.97;;;15.72;43.64
60019;BME280;45870;42.528;26.740;2024-02-26T01:40:56;99384.34;;;15.35;44.48
60019;BME280;45870;42.528;26.740;2024-02-26T01:43:22;99382.97;;;15.48;45.83
60019;BME280;45870;42.528;26.740;2024-02-26T01:45:47;99383.53;;;15.60;46.21
60019;BME280;45870;42.528;26.740;2024-02-26T01:48:13;99375.63;;;15.69;46.64
60019;BME280;45870;42.528;26.740;2024-02-26T01:50:38;99381.03;;;15.84;45.86
60019;BME280;45870;42.528;26.740;2024-02-26T01:53:05;99385.34;;;14.69;48.24
60019;BME280;45870;42.528;26.740;2024-02-26T01:55:31;99373.97;;;14.92;47.87
60019;BME280;45870;42.528;26.740;2024-02-26T01:57:57;99370.13;;;14.53;48.99
60019;BME280;45870;42.528;26.740;2024-02-26T02:00:24;99376.09;;;14.55;48.92
60019;BME280;45870;42.528;26.740;2024-02-26T02:02:49;99371.53;;;14.95;48.14
60019;BME280;45870;42.528;26.740;2024-02-26T02:05:17;99371.81;;;15.04;47.77
60019;BME280;45870;42.528;26.740;2024-02-26T02:07:45;99369.00;;;14.38;47.51
60019;BME280;45870;42.528;26.740;2024-02-26T02:10:11;99373.38;;;12.87;50.65
60019;BME280;45870;42.528;26.740;2024-02-26T02:12:37;99361.78;;;14.07;48.93
60019;BME280;45870;42.528;26.740;2024-02-26T02:15:05;99366.59;;;13.95;49.50
60019;BME280;45870;42.528;26.740;2024-02-26T02:17:30;99368.41;;;14.36;48.42
60019;BME280;45870;42.528;26.740;2024-02-26T02:19:56;99366.84;;;14.61;48.11
60019;BME280;45870;42.528;26.740;2024-02-26T02:22:21;99360.09;;;14.68;48.53
60019;BME280;45870;42.528;26.740;2024-02-26T02:24:48;99370.59;;;14.34;48.86
60019;BME280;45870;42.528;26.740;2024-02-26T02:27:13;99371.81;;;14.84;46.42
60019;BME280;45870;42.528;26.740;2024-02-26T02:29:39;99368.28;;;15.14;46.20
60019;BME280;45870;42.528;26.740;2024-02-26T02:32:04;99368.81;;;15.31;44.37
60019;BME280;45870;42.528;26.740;2024-02-26T02:34:30;99364.41;;;14.49;46.80
60019;BME280;45870;42.528;26.740;2024-02-26T02:36:56;99363.63;;;14.69;46.65
60019;BME280;45870;42.528;26.740;2024-02-26T02:39:22;99363.94;;;14.97;45.64
60019;BME280;45870;42.528;26.740;2024-02-26T02:41:47;99366.63;;;14.72;46.38
60019;BME280;45870;42.528;26.740;2024-02-26T02:44:12;99368.28;;;15.29;44.21
60019;BME280;45870;42.528;26.740;2024-02-26T02:46:38;99364.38;;;14.39;47.22
60019;BME280;45870;42.528;26.740;2024-02-26T02:49:04;99366.59;;;13.95;47.62
60019;BME280;45870;42.528;26.740;2024-02-26T02:51:29;99363.84;;;14.42;46.71
60019;BME280;45870;42.528;26.740;2024-02-26T02:53:54;99356.50;;;14.47;47.38
60019;BME280;45870;42.528;26.740;2024-02-26T02:56:20;99365.63;;;14.26;47.09
60019;BME280;45870;42.528;26.740;2024-02-26T02:58:45;99368.09;;;14.28;47.51
60019;BME280;45870;42.528;26.740;2024-02-26T03:01:12;99365.19;;;13.82;47.58
60019;BME280;45870;42.528;26.740;2024-02-26T03:03:38;99361.78;;;14.94;45.02
60019;BME280;45870;42.528;26.740;2024-02-26T03:06:03;99365.03;;;15.37;43.64
60019;BME280;45870;42.528;26.740;2024-02-26T03:08:28;99367.75;;;15.32;43.89
60019;BME280;45870;42.528;26.740;2024-02-26T03:10:54;99371.53;;;15.31;43.21
60019;BME280;45870;42.528;26.740;2024-02-26T03:13:19;99365.84;;;15.37;42.97
60019;BME280;45870;42.528;26.740;2024-02-26T03:15:45;99364.75;;;15.18;43.27
60019;BME280;45870;42.528;26.740;2024-02-26T03:18:10;99366.09;;;14.85;43.90
60019;BME280;45870;42.528;26.740;2024-02-26T03:20:35;99367.38;;;14.47;44.37
60019;BME280;45870;42.528;26.740;2024-02-26T03:23:02;99364.22;;;14.91;43.69
60019;BME280;45870;42.528;26.740;2024-02-26T03:25:27;99366.41;;;15.29;43.13
60019;BME280;45870;42.528;26.740;2024-02-26T03:27:53;99367.47;;;15.28;42.43
60019;BME280;45870;42.528;26.740;2024-02-26T03:30:18;99356.03;;;15.41;42.48
60019;BME280;45870;42.528;26.740;2024-02-26T03:32:43;99359.88;;;14.95;42.79
60019;BME280;45870;42.528;26.740;2024-02-26T03:35:09;99363.41;;;15.00;42.87
60019;BME280;45870;42.528;26.740;2024-02-26T03:37:34;99360.94;;;14.99;42.40
60019;BME280;45870;42.528;26.740;2024-02-26T03:40:00;99356.88;;;14.91;42.73
60019;BME280;45870;42.528;26.740;2024-02-26T03:42:26;99353.91;;;14.98;42.60
60019;BME280;45870;42.528;26.740;2024-02-26T03:44:52;99350.34;;;15.08;42.71
60019;BME280;45870;42.528;26.740;2024-02-26T03:47:17;99343.53;;;14.80;43.02
60019;BME280;45870;42.528;26.740;2024-02-26T03:49:42;99349.31;;;14.16;44.05
60019;BME280;45870;42.528;26.740;2024-02-26T03:52:08;99346.81;;;14.77;43.25
60019;BME280;45870;42.528;26.740;2024-02-26T03:54:33;99339.56;;;14.20;44.02
60019;BME280;45870;42.528;26.740;2024-02-26T03:56:59;99337.66;;;13.64;45.91
60019;BME280;45870;42.528;26.740;2024-02-26T03:59:24;99332.97;;;14.01;44.29
60019;BME280;45870;42.528;26.740;2024-02-26T04:01:50;99333.06;;;13.69;45.93
60019;BME280;45870;42.528;26.740;2024-02-26T04:04:15;99325.31;;;13.88;45.62
60019;BME280;45870;42.528;26.740;2024-02-26T04:06:44;99333.00;;;14.11;44.74
60019;BME280;45870;42.528;26.740;2024-02-26T04:09:10;99325.59;;;13.39;46.23
60019;BME280;45870;42.528;26.740;2024-02-26T04:11:36;99326.09;;;14.35;44.45
60019;BME280;45870;42.528;26.740;2024-02-26T04:14:01;99326.63;;;14.37;43.85
60019;BME280;45870;42.528;26.740;2024-02-26T04:16:28;99328.88;;;13.98;45.31
60019;BME280;45870;42.528;26.740;2024-02-26T04:18:53;99330.00;;;13.50;46.48
60019;BME280;45870;42.528;26.740;2024-02-26T04:21:19;99336.09;;;13.31;48.10
60019;BME280;45870;42.528;26.740;2024-02-26T04:23:45;99329.69;;;13.10;50.20
60019;BME280;45870;42.528;26.740;2024-02-26T04:26:10;99333.81;;;13.55;50.44
60019;BME280;45870;42.528;26.740;2024-02-26T04:28:36;99328.34;;;13.96;48.63
60019;BME280;45870;42.528;26.740;2024-02-26T04:31:01;99330.78;;;13.46;48.93
60019;BME280;45870;42.528;26.740;2024-02-26T04:33:27;99328.72;;;13.63;47.62
60019;BME280;45870;42.528;26.740;2024-02-26T04:35:52;99330.13;;;13.76;47.36
60019;BME280;45870;42.528;26.740;2024-02-26T04:38:18;99328.44;;;14.27;44.32
60019;BME280;45870;42.528;26.740;2024-02-26T04:40:44;99347.59;;;13.11;49.15
60019;BME280;45870;42.528;26.740;2024-02-26T04:43:09;99343.00;;;13.48;49.68
60019;BME280;45870;42.528;26.740;2024-02-26T04:45:35;99355.94;;;12.51;52.45
60019;BME280;45870;42.528;26.740;2024-02-26T04:48:00;99355.75;;;12.58;53.52
60019;BME280;45870;42.528;26.740;2024-02-26T04:50:26;99360.03;;;12.80;51.36
60019;BME280;45870;42.528;26.740;2024-02-26T04:52:51;99369.00;;;13.13;52.46
60019;BME280;45870;42.528;26.740;2024-02-26T04:55:16;99369.06;;;12.91;53.31
60019;BME280;45870;42.528;26.740;2024-02-26T04:57:42;99369.41;;;12.99;53.02
60019;BME280;45870;42.528;26.740;2024-02-26T05:00:07;99367.53;;;12.25;55.54
60019;BME280;45870;42.528;26.740;2024-02-26T05:02:33;99372.41;;;12.01;56.82
60019;BME280;45870;42.528;26.740;2024-02-26T05:05:03;99365.94;;;12.24;55.56
60019;BME280;45870;42.528;26.740;2024-02-26T05:07:29;99370.25;;;11.65;57.45
60019;BME280;45870;42.528;26.740;2024-02-26T05:09:54;99381.13;;;11.70;57.02
60019;BME280;45870;42.528;26.740;2024-02-26T05:12:21;99370.13;;;11.71;57.51
60019;BME280;45870;42.528;26.740;2024-02-26T05:14:46;99373.53;;;12.05;56.51
60019;BME280;45870;42.528;26.740;2024-02-26T05:17:11;99373.00;;;11.86;56.97
60019;BME280;45870;42.528;26.740;2024-02-26T05:19:37;99380.41;;;12.13;56.18
60019;BME280;45870;42.528;26.740;2024-02-26T05:22:02;99367.72;;;11.58;58.35
60019;BME280;45870;42.528;26.740;2024-02-26T05:24:28;99375.41;;;11.83;58.02
60019;BME280;45870;42.528;26.740;2024-02-26T05:26:53;99374.56;;;11.82;57.92
60019;BME280;45870;42.528;26.740;2024-02-26T05:29:19;99378.94;;;12.05;58.17
60019;BME280;45870;42.528;26.740;2024-02-26T05:31:45;99391.91;;;12.25;57.83
60019;BME280;45870;42.528;26.740;2024-02-26T05:34:10;99389.78;;;12.27;57.60
60019;BME280;45870;42.528;26.740;2024-02-26T05:36:36;99394.34;;;12.48;56.82
60019;BME280;45870;42.528;26.740;2024-02-26T05:39:01;99397.06;;;12.48;57.37
60019;BME280;45870;42.528;26.740;2024-02-26T05:41:28;99395.03;;;12.87;56.73
60019;BME280;45870;42.528;26.740;2024-02-26T05:43:54;99397.31;;;13.00;56.46
60019;BME280;45870;42.528;26.740;2024-02-26T05:46:20;99391.88;;;12.46;58.36
60019;BME280;45870;42.528;26.740;2024-02-26T05:48:52;99395.22;;;12.32;59.15
60019;BME280;45870;42.528;26.740;2024-02-26T05:51:17;99401.03;;;12.67;58.04
60019;BME280;45870;42.528;26.740;2024-02-26T05:53:43;99408.72;;;13.61;56.17
60019;BME280;45870;42.528;26.740;2024-02-26T05:56:09;99406.72;;;13.51;55.84
60019;BME280;45870;42.528;26.740;2024-02-26T05:58:34;99412.34;;;13.39;56.78
60019;BME280;45870;42.528;26.740;2024-02-26T06:01:00;99413.88;;;13.03;57.33
60019;BME280;45870;42.528;26.740;2024-02-26T06:03:26;99413.00;;;14.45;53.52
60019;BME280;45870;42.528;26.740;2024-02-26T06:05:51;99436.88;;;14.43;53.35
60019;BME280;45870;42.528;26.740;2024-02-26T06:08:17;99425.34;;;14.21;54.15
60019;BME280;45870;42.528;26.740;2024-02-26T06:10:42;99428.81;;;14.12;54.48
60019;BME280;45870;42.528;26.740;2024-02-26T06:13:07;99438.25;;;13.62;56.01
60019;BME280;45870;42.528;26.740;2024-02-26T06:15:33;99434.16;;;13.23;57.06
60019;BME280;45870;42.528;26.740;2024-02-26T06:17:58;99433.59;;;13.21;57.48
60019;BME280;45870;42.528;26.740;2024-02-26T06:20:24;99430.25;;;14.24;55.26
60019;BME280;45870;42.528;26.740;2024-02-26T06:22:49;99429.25;;;14.40;54.84
60019;BME280;45870;42.528;26.740;2024-02-26T06:25:15;99427.19;;;14.11;55.47
60019;BME280;45870;42.528;26.740;2024-02-26T06:27:40;99432.25;;;14.44;54.88
60019;BME280;45870;42.528;26.740;2024-02-26T06:30:06;99430.13;;;14.04;55.62
60019;BME280;45870;42.528;26.740;2024-02-26T06:32:31;99429.44;;;14.29;55.60
60019;BME280;45870;42.528;26.740;2024-02-26T06:34:57;99435.88;;;14.60;54.82
60019;BME280;45870;42.528;26.740;2024-02-26T06:37:22;99438.34;;;14.14;56.42
60019;BME280;45870;42.528;26.740;2024-02-26T06:39:48;99428.38;;;15.17;53.82
60019;BME280;45870;42.528;26.740;2024-02-26T06:42:13;99428.13;;;15.79;52.45
60019;BME280;45870;42.528;26.740;2024-02-26T06:44:39;99430.25;;;15.17;53.46
60019;BME280;45870;42.528;26.740;2024-02-26T06:47:05;99429.25;;;14.40;56.06
60019;BME280;45870;42.528;26.740;2024-02-26T06:49:30;99435.78;;;14.44;56.53
60019;BME280;45870;42.528;26.740;2024-02-26T06:51:56;99436.78;;;14.28;56.93
60019;BME280;45870;42.528;26.740;2024-02-26T06:54:21;99444.94;;;14.33;56.81
60019;BME280;45870;42.528;26.740;2024-02-26T06:56:47;99435.78;;;14.49;56.47
60019;BME280;45870;42.528;26.740;2024-02-26T06:59:12;99435.22;;;14.37;56.48
60019;BME280;45870;42.528;26.740;2024-02-26T07:01:40;99441.16;;;15.22;55.07
60019;BME280;45870;42.528;26.740;2024-02-26T07:04:05;99432.50;;;14.37;56.41
60019;BME280;45870;42.528;26.740;2024-02-26T07:06:30;99436.91;;;14.54;56.41
60019;BME280;45870;42.528;26.740;2024-02-26T07:08:56;99435.34;;;14.78;56.27
60019;BME280;45870;42.528;26.740;2024-02-26T07:11:21;99437.03;;;14.84;55.26
60019;BME280;45870;42.528;26.740;2024-02-26T07:13:47;99448.53;;;15.36;54.27
60019;BME280;45870;42.528;26.740;2024-02-26T07:16:12;99441.88;;;17.03;51.19
60019;BME280;45870;42.528;26.740;2024-02-26T07:18:41;99442.53;;;15.95;53.57
60019;BME280;45870;42.528;26.740;2024-02-26T07:21:06;99446.91;;;15.71;52.61
60019;BME280;45870;42.528;26.740;2024-02-26T07:23:32;99445.00;;;15.86;53.62
60019;BME280;45870;42.528;26.740;2024-02-26T07:25:57;99439.34;;;16.67;50.64
60019;BME280;45870;42.528;26.740;2024-02-26T07:28:24;99437.78;;;16.41;50.83
60019;BME280;45870;42.528;26.740;2024-02-26T07:30:49;99440.22;;;16.37;52.19
60019;BME280;45870;42.528;26.740;2024-02-26T07:33:15;99442.47;;;16.25;51.93
60019;BME280;45870;42.528;26.740;2024-02-26T07:35:40;99438.00;;;16.60;51.38
60019;BME280;45870;42.528;26.740;2024-02-26T07:38:06;99447.97;;;16.79;51.00
60019;BME280;45870;42.528;26.740;2024-02-26T07:40:31;99440.22;;;16.42;51.37
60019;BME280;45870;42.528;26.740;2024-02-26T07:42:57;99444.59;;;16.38;51.34
60019;BME280;45870;42.528;26.740;2024-02-26T07:45:22;99447.81;;;16.50;51.19
60019;BME280;45870;42.528;26.740;2024-02-26T07:47:47;99438.06;;;16.34;51.35
60019;BME280;45870;42.528;26.740;2024-02-26T07:50:13;99440.88;;;15.99;51.85
60019;BME280;45870;42.528;26.740;2024-02-26T07:52:38;99429.06;;;16.39;50.92
60019;BME280;45870;42.528;26.740;2024-02-26T07:55:04;99436.81;;;16.81;51.21
60019;BME280;45870;42.528;26.740;2024-02-26T07:57:31;99436.09;;;16.60;51.07
60019;BME280;45870;42.528;26.740;2024-02-26T07:59:56;99427.94;;;17.04;50.70
60019;BME280;45870;42.528;26.740;2024-02-26T08:02:21;99427.59;;;18.36;47.51
60019;BME280;45870;42.528;26.740;2024-02-26T08:04:47;99444.69;;;17.26;49.48
60019;BME280;45870;42.528;26.740;2024-02-26T08:07:12;99441.16;;;17.65;49.02
60019;BME280;45870;42.528;26.740;2024-02-26T08:09:38;99444.47;;;17.62;48.98
60019;BME280;45870;42.528;26.740;2024-02-26T08:12:03;99439.66;;;17.10;49.97
60019;BME280;45870;42.528;26.740;2024-02-26T08:14:29;99435.13;;;17.68;49.17
60019;BME280;45870;42.528;26.740;2024-02-26T08:16:54;99431.78;;;17.76;48.18
60019;BME280;45870;42.528;26.740;2024-02-26T08:19:20;99442.81;;;17.22;50.08
60019;BME280;45870;42.528;26.740;2024-02-26T08:21:46;99445.44;;;18.05;47.79
60019;BME280;45870;42.528;26.740;2024-02-26T08:24:11;99443.47;;;17.42;48.79
60019;BME280;45870;42.528;26.740;2024-02-26T08:26:37;99441.63;;;18.01;47.08
60019;BME280;45870;42.528;26.740;2024-02-26T08:29:02;99432.19;;;17.59;47.83
60019;BME280;45870;42.528;26.740;2024-02-26T08:31:27;99439.28;;;17.60;48.77
60019;BME280;45870;42.528;26.740;2024-02-26T08:33:53;99433.00;;;17.60;48.50
60019;BME280;45870;42.528;26.740;2024-02-26T08:36:19;99435.16;;;17.63;48.69
60019;BME280;45870;42.528;26.740;2024-02-26T08:38:44;99432.47;;;19.88;43.26
60019;BME280;45870;42.528;26.740;2024-02-26T08:41:09;99430.78;;;18.43;46.42
60019;BME280;45870;42.528;26.740;2024-02-26T08:43:35;99436.03;;;19.89;44.67
60019;BME280;45870;42.528;26.740;2024-02-26T08:46:01;99433.78;;;18.89;45.68
60019;BME280;45870;42.528;26.740;2024-02-26T08:48:26;99430.38;;;18.78;45.76
60019;BME280;45870;42.528;26.740;2024-02-26T08:50:51;99425.19;;;19.14;43.89
60019;BME280;45870;42.528;26.740;2024-02-26T08:53:17;99428.91;;;19.42;44.56
60019;BME280;45870;42.528;26.740;2024-02-26T08:55:42;99422.50;;;20.38;43.61
60019;BME280;45870;42.528;26.740;2024-02-26T08:58:08;99417.63;;;20.22;42.43
60019;BME280;45870;42.528;26.740;2024-02-26T09:00:33;99419.19;;;19.95;42.59
60019;BME280;45870;42.528;26.740;2024-02-26T09:02:58;99414.25;;;20.25;41.84
60019;BME280;45870;42.528;26.740;2024-02-26T09:05:24;99418.50;;;20.17;41.40
60019;BME280;45870;42.528;26.740;2024-02-26T09:07:50;99415.56;;;20.14;41.38
60019;BME280;45870;42.528;26.740;2024-02-26T09:10:17;99409.53;;;19.84;42.14
60019;BME280;45870;42.528;26.740;2024-02-26T09:12:42;99416.56;;;20.04;40.38
60019;BME280;45870;42.528;26.740;2024-02-26T09:15:08;99412.44;;;21.24;39.20
60019;BME280;45870;42.528;26.740;2024-02-26T09:17:33;99411.03;;;19.63;41.24
60019;BME280;45870;42.528;26.740;2024-02-26T09:19:59;99405.88;;;19.75;41.36
60019;BME280;45870;42.528;26.740;2024-02-26T09:22:24;99404.44;;;20.37;39.88
60019;BME280;45870;42.528;26.740;2024-02-26T09:24:49;99409.41;;;20.35;40.73
60019;BME280;45870;42.528;26.740;2024-02-26T09:27:16;99407.72;;;20.89;40.68
60019;BME280;45870;42.528;26.740;2024-02-26T09:29:42;99410.00;;;20.19;41.59
60019;BME280;45870;42.528;26.740;2024-02-26T09:32:07;99409.69;;;20.75;41.42
60019;BME280;45870;42.528;26.740;2024-02-26T09:34:33;99406.72;;;20.03;41.98
60019;BME280;45870;42.528;26.740;2024-02-26T09:36:59;99405.06;;;19.42;43.59
60019;BME280;45870;42.528;26.740;2024-02-26T09:39:25;99399.81;;;19.46;43.72
60019;BME280;45870;42.528;26.740;2024-02-26T09:41:50;99394.47;;;20.14;42.13
60019;BME280;45870;42.528;26.740;2024-02-26T09:44:18;99388.78;;;19.97;42.68
60019;BME280;45870;42.528;26.740;2024-02-26T09:46:44;99382.19;;;20.25;41.74
60019;BME280;45870;42.528;26.740;2024-02-26T09:49:10;99384.84;;;19.57;42.85
60019;BME280;45870;42.528;26.740;2024-02-26T09:51:37;99385.63;;;20.04;42.46
60019;BME280;45870;42.528;26.740;2024-02-26T09:54:03;99380.56;;;19.32;43.71
60019;BME280;45870;42.528;26.740;2024-02-26T09:56:29;99374.56;;;18.61;45.22
60019;BME280;45870;42.528;26.740;2024-02-26T09:58:55;99370.94;;;18.84;44.94
60019;BME280;45870;42.528;26.740;2024-02-26T10:01:21;99374.63;;;18.56;47.00
60019;BME280;45870;42.528;26.740;2024-02-26T10:03:48;99371.25;;;19.52;44.85
60019;BME280;45870;42.528;26.740;2024-02-26T10:06:17;99361.63;;;18.85;45.68
60019;BME280;45870;42.528;26.740;2024-02-26T10:08:42;99357.66;;;18.35;47.26
60019;BME280;45870;42.528;26.740;2024-02-26T10:11:08;99362.34;;;18.53;47.55
60019;BME280;45870;42.528;26.740;2024-02-26T10:13:36;99364.53;;;18.75;47.13
60019;BME280;45870;42.528;26.740;2024-02-26T10:16:03;99367.75;;;18.77;46.13
60019;BME280;45870;42.528;26.740;2024-02-26T10:18:46;99361.25;;;18.73;47.28
60019;BME280;45870;42.528;26.740;2024-02-26T10:21:12;99355.19;;;18.94;46.90
60019;BME280;45870;42.528;26.740;2024-02-26T10:23:39;99351.63;;;19.13;46.80
60019;BME280;45870;42.528;26.740;2024-02-26T10:26:04;99346.69;;;18.96;47.50
60019;BME280;45870;42.528;26.740;2024-02-26T10:28:30;99347.16;;;18.42;48.17
60019;BME280;45870;42.528;26.740;2024-02-26T10:30:55;99358.03;;;19.22;46.34
60019;BME280;45870;42.528;26.740;2024-02-26T10:33:20;99357.38;;;18.36;46.77
60019;BME280;45870;42.528;26.740;2024-02-26T10:35:47;99351.81;;;18.41;47.16
60019;BME280;45870;42.528;26.740;2024-02-26T10:38:13;99352.31;;;18.67;46.68
60019;BME280;45870;42.528;26.740;2024-02-26T10:40:38;99354.53;;;18.84;45.91
60019;BME280;45870;42.528;26.740;2024-02-26T10:43:04;99357.78;;;18.25;47.26
60019;BME280;45870;42.528;26.740;2024-02-26T10:45:29;99352.69;;;18.61;45.60
60019;BME280;45870;42.528;26.740;2024-02-26T10:47:55;99357.31;;;18.98;45.19
60019;BME280;45870;42.528;26.740;2024-02-26T10:50:20;99348.34;;;19.29;44.95
60019;BME280;45870;42.528;26.740;2024-02-26T10:52:46;99347.13;;;19.03;45.68
60019;BME280;45870;42.528;26.740;2024-02-26T10:55:17;99350.28;;;18.35;47.19
60019;BME280;45870;42.528;26.740;2024-02-26T10:57:44;99342.78;;;18.83;45.75
60019;BME280;45870;42.528;26.740;2024-02-26T11:00:10;99341.81;;;18.93;45.81
60019;BME280;45870;42.528;26.740;2024-02-26T11:02:37;99341.44;;;19.51;44.88
60019;BME280;45870;42.528;26.740;2024-02-26T11:05:03;99350.06;;;19.58;44.52
60019;BME280;45870;42.528;26.740;2024-02-26T11:07:29;99344.81;;;19.88;44.02
60019;BME280;45870;42.528;26.740;2024-02-26T11:09:55;99340.19;;;20.43;42.97
60019;BME280;45870;42.528;26.740;2024-02-26T11:12:21;99338.63;;;20.37;43.01
60019;BME280;45870;42.528;26.740;2024-02-26T11:14:47;99342.16;;;21.23;41.55
60019;BME280;45870;42.528;26.740;2024-02-26T11:17:16;99329.25;;;20.66;43.03
60019;BME280;45870;42.528;26.740;2024-02-26T11:19:44;99334.19;;;19.87;44.88
60019;BME280;45870;42.528;26.740;2024-02-26T11:22:10;99325.84;;;19.92;45.00
60019;BME280;45870;42.528;26.740;2024-02-26T11:24:35;99318.38;;;19.84;44.99
60019;BME280;45870;42.528;26.740;2024-02-26T11:27:06;99322.59;;;20.17;44.25
60019;BME280;45870;42.528;26.740;2024-02-26T11:29:35;99317.97;;;19.90;45.49
60019;BME280;45870;42.528;26.740;2024-02-26T11:32:03;99313.59;;;20.66;43.42
60019;BME280;45870;42.528;26.740;2024-02-26T11:34:28;99315.94;;;21.39;42.00
60019;BME280;45870;42.528;26.740;2024-02-26T11:36:54;99314.44;;;20.89;43.13
60019;BME280;45870;42.528;26.740;2024-02-26T11:39:20;99310.25;;;20.33;44.88
60019;BME280;45870;42.528;26.740;2024-02-26T11:41:46;99306.28;;;20.12;45.24
60019;BME280;45870;42.528;26.740;2024-02-26T11:44:12;99305.78;;;19.97;46.09
60019;BME280;45870;42.528;26.740;2024-02-26T11:46:41;99308.47;;;20.24;44.57
60019;BME280;45870;42.528;26.740;2024-02-26T11:51:55;99313.38;;;19.86;45.20
60019;BME280;45870;42.528;26.740;2024-02-26T11:57:19;99300.25;;;20.24;41.95
60019;BME280;45870;42.528;26.740;2024-02-26T11:59:45;99309.81;;;20.13;42.83
60019;BME280;45870;42.528;26.740;2024-02-26T12:02:10;99303.44;;;19.90;42.58
60019;BME280;45870;42.528;26.740;2024-02-26T12:04:37;99301.88;;;19.57;42.50
60019;BME280;45870;42.528;26.740;2024-02-26T12:07:03;99300.38;;;19.18;43.25
60019;BME280;45870;42.528;26.740;2024-02-26T12:09:39;99296.09;;;19.12;43.58
60019;BME280;45870;42.528;26.740;2024-02-26T12:12:12;99290.19;;;19.05;42.31
60019;BME280;45870;42.528;26.740;2024-02-26T12:14:39;99296.44;;;19.84;41.99
60019;BME280;45870;42.528;26.740;2024-02-26T12:17:07;99282.84;;;20.56;40.19
60019;BME280;45870;42.528;26.740;2024-02-26T12:19:35;99285.66;;;20.42;39.63
60019;BME280;45870;42.528;26.740;2024-02-26T12:22:01;99277.50;;;20.73;38.36
60019;BME280;45870;42.528;26.740;2024-02-26T12:24:26;99278.41;;;20.82;38.60
60019;BME280;45870;42.528;26.740;2024-02-26T12:26:52;99281.31;;;21.08;38.19
60019;BME280;45870;42.528;26.740;2024-02-26T12:29:17;99283.88;;;20.60;37.50
60019;BME280;45870;42.528;26.740;2024-02-26T12:31:43;99272.16;;;20.68;37.62
60019;BME280;45870;42.528;26.740;2024-02-26T12:34:08;99280.47;;;20.99;36.87
60019;BME280;45870;42.528;26.740;2024-02-26T12:36:37;99279.84;;;21.24;36.23
60019;BME280;45870;42.528;26.740;2024-02-26T12:39:03;99277.84;;;20.35;38.06
60019;BME280;45870;42.528;26.740;2024-02-26T12:41:31;99281.09;;;20.10;38.02
60019;BME280;45870;42.528;26.740;2024-02-26T12:43:57;99294.06;;;20.46;37.45
60019;BME280;45870;42.528;26.740;2024-02-26T12:46:23;99289.72;;;20.31;39.35
60019;BME280;45870;42.528;26.740;2024-02-26T12:48:48;99291.69;;;19.76;39.37